sensor_id;sensor_type;location;lat;lon;timestamp;pressure;altitude;pressure_sealevel;temperature;humidity
30554;BME280;17335;50.720;7.452;2024-01-15T00:01:58;98073.53;;;0.13;100.00
30554;BME280;17335;50.720;7.452;2024-01-15T00:04:24;98069.09;;;0.13;100.00
30554;BME280;17335;50.720;7.452;2024-01-15T00:06:51;98059.78;;;0.21;100.00
30554;BME280;17335;50.720;7.452;2024-01-15T00:09:17;98048.41;;;0.20;100.00
30554;BME280;17335;50.720;7.452;2024-01-15T00:11:44;98043.94;;;0.21;100.00
30554;BME280;17335;50.720;7.452;2024-01-15T00:14:11;98048.06;;;0.25;100.00
30554;BME280;17335;50.720;7.452;2024-01-15T00:16:40;98037.63;;;0.23;100.00
30554;BME280;17335;50.720;7.452;2024-01-15T00:19:07;98023.09;;;0.17;100.00
30554;BME280;17335;50.720;7.452;2024-01-15T00:21:33;98020.84;;;0.24;100.00
30554;BME280;17335;50.720;7.452;2024-01-15T00:24:00;98024.03;;;0.16;100.00
30554;BME280;17335;50.720;7.452;2024-01-15T00:26:26;98010.03;;;0.27;100.00
30554;BME280;17335;50.720;7.452;2024-01-15T00:28:53;98009.91;;;0.17;100.00
30554;BME280;17335;50.720;7.452;2024-01-15T00:31:19;98006.34;;;0.30;100.00
30554;BME280;17335;50.720;7.452;2024-01-15T00:33:46;98002.13;;;0.27;100.00
30554;BME280;17335;50.720;7.452;2024-01-15T00:36:13;97993.75;;;0.33;100.00
30554;BME280;17335;50.720;7.452;2024-01-15T00:38:40;98000.25;;;0.29;100.00
30554;BME280;17335;50.720;7.452;2024-01-15T00:41:07;98000.47;;;0.26;100.00
30554;BME280;17335;50.720;7.452;2024-01-15T00:43:33;97989.28;;;0.23;100.00
30554;BME280;17335;50.720;7.452;2024-01-15T00:46:02;97987.81;;;0.18;100.00
30554;BME280;17335;50.720;7.452;2024-01-15T00:48:29;98002.91;;;0.16;100.00
30554;BME280;17335;50.720;7.452;2024-01-15T00:50:56;98000.28;;;0.16;100.00
30554;BME280;17335;50.720;7.452;2024-01-15T00:53:22;98003.50;;;0.09;100.00
30554;BME280;17335;50.720;7.452;2024-01-15T00:55:50;97995.13;;;0.15;100.00
30554;BME280;17335;50.720;7.452;2024-01-15T00:58:16;97998.97;;;0.22;100.00
30554;BME280;17335;50.720;7.452;2024-01-15T01:00:42;98003.03;;;0.15;100.00
30554;BME280;17335;50.720;7.452;2024-01-15T01:03:09;98007.25;;;0.17;100.00
30554;BME280;17335;50.720;7.452;2024-01-15T01:05:36;98002.72;;;0.31;100.00
30554;BME280;17335;50.720;7.452;2024-01-15T01:08:04;97997.09;;;0.24;100.00
30554;BME280;17335;50.720;7.452;2024-01-15T01:10:30;97990.66;;;0.15;100.00
30554;BME280;17335;50.720;7.452;2024-01-15T01:12:57;97996.44;;;0.21;100.00
30554;BME280;17335;50.720;7.452;2024-01-15T01:15:23;98002.59;;;0.21;100.00
30554;BME280;17335;50.720;7.452;2024-01-15T01:17:50;97997.97;;;0.12;100.00
30554;BME280;17335;50.720;7.452;2024-01-15T01:20:17;97997.84;;;0.13;100.00
30554;BME280;17335;50.720;7.452;2024-01-15T01:22:45;97996.59;;;0.19;100.00
30554;BME280;17335;50.720;7.452;2024-01-15T01:25:11;98007.00;;;0.21;100.00
30554;BME280;17335;50.720;7.452;2024-01-15T01:27:38;98000.84;;;0.09;100.00
30554;BME280;17335;50.720;7.452;2024-01-15T01:30:05;98007.88;;;0.21;100.00
30554;BME280;17335;50.720;7.452;2024-01-15T01:32:31;98006.63;;;0.14;100.00
30554;BME280;17335;50.720;7.452;2024-01-15T01:34:58;98002.31;;;0.13;100.00
30554;BME280;17335;50.720;7.452;2024-01-15T01:37:25;98007.47;;;0.14;100.00
30554;BME280;17335;50.720;7.452;2024-01-15T01:39:51;97993.56;;;0.12;100.00
30554;BME280;17335;50.720;7.452;2024-01-15T01:42:19;98000.84;;;0.09;100.00
30554;BME280;17335;50.720;7.452;2024-01-15T01:44:45;98004.44;;;0.08;100.00
30554;BME280;17335;50.720;7.452;2024-01-15T01:47:13;98003.34;;;0.10;100.00
30554;BME280;17335;50.720;7.452;2024-01-15T01:49:41;97995.59;;;0.09;100.00
30554;BME280;17335;50.720;7.452;2024-01-15T01:52:08;97998.66;;;0.03;100.00
30554;BME280;17335;50.720;7.452;2024-01-15T01:54:36;98000.09;;;0.07;100.00
30554;BME280;17335;50.720;7.452;2024-01-15T01:57:04;98001.59;;;0.11;100.00
30554;BME280;17335;50.720;7.452;2024-01-15T01:59:33;97998.72;;;0.14;100.00
30554;BME280;17335;50.720;7.452;2024-01-15T02:02:02;98007.38;;;0.16;100.00
30554;BME280;17335;50.720;7.452;2024-01-15T02:04:31;98003.31;;;0.23;100.00
30554;BME280;17335;50.720;7.452;2024-01-15T02:06:59;98001.59;;;0.11;100.00
30554;BME280;17335;50.720;7.452;2024-01-15T02:09:26;98000.09;;;0.07;100.00
30554;BME280;17335;50.720;7.452;2024-01-15T02:11:52;98000.72;;;0.10;100.00
30554;BME280;17335;50.720;7.452;2024-01-15T02:14:19;98008.78;;;0.09;100.00
30554;BME280;17335;50.720;7.452;2024-01-15T02:16:45;98002.53;;;0.10;100.00
30554;BME280;17335;50.720;7.452;2024-01-15T02:19:16;98001.06;;;0.30;100.00
30554;BME280;17335;50.720;7.452;2024-01-15T02:21:44;97998.72;;;0.14;100.00
30554;BME280;17335;50.720;7.452;2024-01-15T02:24:11;98003.88;;;0.15;100.00
30554;BME280;17335;50.720;7.452;2024-01-15T02:26:37;98004.72;;;0.16;100.00
30554;BME280;17335;50.720;7.452;2024-01-15T02:29:06;97996.53;;;0.08;100.00
30554;BME280;17335;50.720;7.452;2024-01-15T02:31:36;97997.75;;;0.15;100.00
30554;BME280;17335;50.720;7.452;2024-01-15T02:34:03;98005.78;;;0.13;100.00
30554;BME280;17335;50.720;7.452;2024-01-15T02:36:29;97997.25;;;0.10;100.00
30554;BME280;17335;50.720;7.452;2024-01-15T02:38:56;98007.59;;;0.13;100.00
30554;BME280;17335;50.720;7.452;2024-01-15T02:41:22;97999.78;;;0.11;100.00
30554;BME280;17335;50.720;7.452;2024-01-15T02:43:49;97999.22;;;0.19;100.00
30554;BME280;17335;50.720;7.452;2024-01-15T02:46:15;98005.44;;;0.18;100.00
30554;BME280;17335;50.720;7.452;2024-01-15T02:48:42;97997.75;;;0.15;100.00
30554;BME280;17335;50.720;7.452;2024-01-15T02:51:09;97998.59;;;0.15;100.00
30554;BME280;17335;50.720;7.452;2024-01-15T02:53:36;98001.59;;;0.11;100.00
30554;BME280;17335;50.720;7.452;2024-01-15T02:56:03;98002.63;;;0.08;100.00
30554;BME280;17335;50.720;7.452;2024-01-15T02:58:30;98004.94;;;0.13;100.00
30554;BME280;17335;50.720;7.452;2024-01-15T03:00:57;98015.50;;;0.13;100.00
30554;BME280;17335;50.720;7.452;2024-01-15T03:03:23;98012.13;;;0.11;100.00
30554;BME280;17335;50.720;7.452;2024-01-15T03:05:50;98006.84;;;0.11;100.00
30554;BME280;17335;50.720;7.452;2024-01-15T03:08:17;98016.94;;;0.17;100.00
30554;BME280;17335;50.720;7.452;2024-01-15T03:10:43;98014.56;;;0.14;100.00
30554;BME280;17335;50.720;7.452;2024-01-15T03:13:10;98009.03;;;0.17;100.00
30554;BME280;17335;50.720;7.452;2024-01-15T03:15:36;98012.19;;;0.22;100.00
30554;BME280;17335;50.720;7.452;2024-01-15T03:18:03;98006.38;;;0.17;100.00
30554;BME280;17335;50.720;7.452;2024-01-15T03:20:30;97999.34;;;0.17;100.00
30554;BME280;17335;50.720;7.452;2024-01-15T03:22:56;97997.75;;;0.15;100.00
30554;BME280;17335;50.720;7.452;2024-01-15T03:25:23;98000.06;;;0.20;100.00
30554;BME280;17335;50.720;7.452;2024-01-15T03:27:49;97997.31;;;0.21;100.00
30554;BME280;17335;50.720;7.452;2024-01-15T03:30:15;97998.38;;;0.18;100.00
30554;BME280;17335;50.720;7.452;2024-01-15T03:32:42;97999.34;;;0.17;100.00
30554;BME280;17335;50.720;7.452;2024-01-15T03:35:08;97994.16;;;0.16;100.00
30554;BME280;17335;50.720;7.452;2024-01-15T03:37:35;97989.44;;;0.32;100.00
30554;BME280;17335;50.720;7.452;2024-01-15T03:40:01;97994.81;;;0.31;100.00
30554;BME280;17335;50.720;7.452;2024-01-15T03:42:29;97990.94;;;0.24;100.00
30554;BME280;17335;50.720;7.452;2024-01-15T03:44:55;97979.78;;;0.20;100.00
30554;BME280;17335;50.720;7.452;2024-01-15T03:47:22;97984.13;;;0.21;100.00
30554;BME280;17335;50.720;7.452;2024-01-15T03:49:48;97985.91;;;0.21;100.00
30554;BME280;17335;50.720;7.452;2024-01-15T03:52:15;97988.41;;;0.22;100.00
30554;BME280;17335;50.720;7.452;2024-01-15T03:54:41;97978.84;;;0.21;100.00
30554;BME280;17335;50.720;7.452;2024-01-15T03:57:08;97983.84;;;0.13;100.00
30554;BME280;17335;50.720;7.452;2024-01-15T03:59:34;97988.69;;;0.19;100.00
30554;BME280;17335;50.720;7.452;2024-01-15T04:02:01;97990.91;;;0.12;100.00
30554;BME280;17335;50.720;7.452;2024-01-15T04:04:27;97982.63;;;0.17;100.00
30554;BME280;17335;50.720;7.452;2024-01-15T04:06:54;97986.03;;;0.19;100.00
30554;BME280;17335;50.720;7.452;2024-01-15T04:09:20;97997.75;;;0.15;100.00
30554;BME280;17335;50.720;7.452;2024-01-15T04:11:48;97993.78;;;0.09;100.00
30554;BME280;17335;50.720;7.452;2024-01-15T04:14:14;97999.06;;;0.09;100.00
30554;BME280;17335;50.720;7.452;2024-01-15T04:16:41;97995.22;;;0.13;100.00
30554;BME280;17335;50.720;7.452;2024-01-15T04:19:07;97987.91;;;0.17;100.00
30554;BME280;17335;50.720;7.452;2024-01-15T04:21:34;97976.84;;;0.12;100.00
30554;BME280;17335;50.720;7.452;2024-01-15T04:24:00;97981.91;;;0.15;100.00
30554;BME280;17335;50.720;7.452;2024-01-15T04:26:27;97975.81;;;0.14;100.00
30554;BME280;17335;50.720;7.452;2024-01-15T04:28:53;97981.69;;;0.18;100.00
30554;BME280;17335;50.720;7.452;2024-01-15T04:31:22;97979.28;;;0.15;100.00
30554;BME280;17335;50.720;7.452;2024-01-15T04:33:49;97978.38;;;0.27;100.00
30554;BME280;17335;50.720;7.452;2024-01-15T04:36:15;97971.75;;;0.22;100.00
30554;BME280;17335;50.720;7.452;2024-01-15T04:38:42;97967.31;;;0.22;100.00
30554;BME280;17335;50.720;7.452;2024-01-15T04:41:12;97970.81;;;0.23;100.00
30554;BME280;17335;50.720;7.452;2024-01-15T04:43:39;97966.81;;;0.17;100.00
30554;BME280;17335;50.720;7.452;2024-01-15T04:46:06;97969.94;;;0.22;100.00
30554;BME280;17335;50.720;7.452;2024-01-15T04:48:34;97949.59;;;0.24;100.00
30554;BME280;17335;50.720;7.452;2024-01-15T04:51:00;97963.94;;;0.20;100.00
30554;BME280;17335;50.720;7.452;2024-01-15T04:53:29;97955.31;;;0.18;100.00
30554;BME280;17335;50.720;7.452;2024-01-15T04:55:57;97962.03;;;0.22;100.00
30554;BME280;17335;50.720;7.452;2024-01-15T04:58:23;97956.03;;;0.20;100.00
30554;BME280;17335;50.720;7.452;2024-01-15T05:00:53;97961.91;;;0.12;100.00
30554;BME280;17335;50.720;7.452;2024-01-15T05:03:20;97941.69;;;0.24;100.00
30554;BME280;17335;50.720;7.452;2024-01-15T05:05:47;97950.16;;;0.16;100.00
30554;BME280;17335;50.720;7.452;2024-01-15T05:08:13;97958.66;;;0.20;100.00
30554;BME280;17335;50.720;7.452;2024-01-15T05:10:40;97948.72;;;0.24;100.00
30554;BME280;17335;50.720;7.452;2024-01-15T05:13:06;97953.88;;;0.14;100.00
30554;BME280;17335;50.720;7.452;2024-01-15T05:15:33;97955.03;;;0.10;100.00
30554;BME280;17335;50.720;7.452;2024-01-15T05:17:59;97962.50;;;0.16;100.00
30554;BME280;17335;50.720;7.452;2024-01-15T05:20:26;97950.59;;;0.10;100.00
30554;BME280;17335;50.720;7.452;2024-01-15T05:22:52;97937.78;;;0.17;100.00
30554;BME280;17335;50.720;7.452;2024-01-15T05:25:19;97939.69;;;0.15;100.00
30554;BME280;17335;50.720;7.452;2024-01-15T05:27:45;97950.75;;;0.20;100.00
30554;BME280;17335;50.720;7.452;2024-01-15T05:30:12;97948.81;;;0.11;100.00
30554;BME280;17335;50.720;7.452;2024-01-15T05:32:39;97938.28;;;0.22;100.00
30554;BME280;17335;50.720;7.452;2024-01-15T05:35:06;97943.56;;;0.22;100.00
30554;BME280;17335;50.720;7.452;2024-01-15T05:37:32;97941.63;;;0.13;100.00
30554;BME280;17335;50.720;7.452;2024-01-15T05:39:59;97936.34;;;0.13;100.00
30554;BME280;17335;50.720;7.452;2024-01-15T05:42:25;97928.31;;;0.14;100.00
30554;BME280;17335;50.720;7.452;2024-01-15T05:44:52;97935.25;;;0.15;100.00
30554;BME280;17335;50.720;7.452;2024-01-15T05:47:19;97938.03;;;0.14;100.00
30554;BME280;17335;50.720;7.452;2024-01-15T05:49:45;97930.84;;;0.16;100.00
30554;BME280;17335;50.720;7.452;2024-01-15T05:52:12;97942.84;;;0.20;100.00
30554;BME280;17335;50.720;7.452;2024-01-15T05:54:38;97934.59;;;0.25;100.00
30554;BME280;17335;50.720;7.452;2024-01-15T05:57:05;97934.25;;;0.29;100.00
30554;BME280;17335;50.720;7.452;2024-01-15T05:59:32;97941.19;;;0.19;100.00
30554;BME280;17335;50.720;7.452;2024-01-15T06:02:00;97936.56;;;0.10;100.00
30554;BME280;17335;50.720;7.452;2024-01-15T06:04:27;97932.50;;;0.17;100.00
30554;BME280;17335;50.720;7.452;2024-01-15T06:06:53;97931.91;;;0.13;100.00
30554;BME280;17335;50.720;7.452;2024-01-15T06:09:20;97936.63;;;0.21;100.00
30554;BME280;17335;50.720;7.452;2024-01-15T06:11:46;97936.13;;;0.16;100.00
30554;BME280;17335;50.720;7.452;2024-01-15T06:14:13;97932.28;;;0.20;100.00
30554;BME280;17335;50.720;7.452;2024-01-15T06:16:39;97925.59;;;0.27;100.00
30554;BME280;17335;50.720;7.452;2024-01-15T06:19:06;97923.31;;;0.23;100.00
30554;BME280;17335;50.720;7.452;2024-01-15T06:21:33;97920.66;;;0.23;100.00
30554;BME280;17335;50.720;7.452;2024-01-15T06:24:00;97923.81;;;0.28;100.00
30554;BME280;17335;50.720;7.452;2024-01-15T06:26:27;97932.56;;;0.28;100.00
30554;BME280;17335;50.720;7.452;2024-01-15T06:28:53;97928.00;;;0.30;100.00
30554;BME280;17335;50.720;7.452;2024-01-15T06:31:19;97924.03;;;0.25;100.00
30554;BME280;17335;50.720;7.452;2024-01-15T06:33:46;97918.91;;;0.34;100.00
30554;BME280;17335;50.720;7.452;2024-01-15T06:36:15;97914.91;;;0.17;100.00
30554;BME280;17335;50.720;7.452;2024-01-15T06:38:45;97908.53;;;0.20;100.00
30554;BME280;17335;50.720;7.452;2024-01-15T06:41:12;97917.28;;;0.21;100.00
30554;BME280;17335;50.720;7.452;2024-01-15T06:43:38;97911.78;;;0.24;100.00
30554;BME280;17335;50.720;7.452;2024-01-15T06:46:05;97913.09;;;0.18;100.00
30554;BME280;17335;50.720;7.452;2024-01-15T06:48:34;97904.34;;;0.29;100.00
30554;BME280;17335;50.720;7.452;2024-01-15T06:51:00;97894.88;;;0.26;100.00
30554;BME280;17335;50.720;7.452;2024-01-15T06:53:27;97898.81;;;0.21;100.00
30554;BME280;17335;50.720;7.452;2024-01-15T06:55:53;97905.06;;;0.20;100.00
30554;BME280;17335;50.720;7.452;2024-01-15T06:58:20;97907.59;;;0.21;100.00
30554;BME280;17335;50.720;7.452;2024-01-15T07:00:46;97909.88;;;0.26;100.00
30554;BME280;17335;50.720;7.452;2024-01-15T07:03:13;97909.50;;;0.19;100.00
30554;BME280;17335;50.720;7.452;2024-01-15T07:05:39;97898.34;;;0.27;100.00
30554;BME280;17335;50.720;7.452;2024-01-15T07:08:06;97909.53;;;0.30;100.00
30554;BME280;17335;50.720;7.452;2024-01-15T07:10:32;97905.22;;;0.29;100.00
30554;BME280;17335;50.720;7.452;2024-01-15T07:13:05;97903.06;;;0.34;100.00
30554;BME280;17335;50.720;7.452;2024-01-15T07:15:34;97902.81;;;0.37;100.00
30554;BME280;17335;50.720;7.452;2024-01-15T07:18:01;97891.81;;;0.44;100.00
30554;BME280;17335;50.720;7.452;2024-01-15T07:20:28;97904.03;;;0.45;100.00
30554;BME280;17335;50.720;7.452;2024-01-15T07:22:54;97901.03;;;0.38;100.00
30554;BME280;17335;50.720;7.452;2024-01-15T07:25:21;97904.84;;;0.34;100.00
30554;BME280;17335;50.720;7.452;2024-01-15T07:27:47;97899.72;;;0.44;100.00
30554;BME280;17335;50.720;7.452;2024-01-15T07:30:14;97903.91;;;0.35;100.00
30554;BME280;17335;50.720;7.452;2024-01-15T07:32:41;97904.63;;;0.37;100.00
30554;BME280;17335;50.720;7.452;2024-01-15T07:35:08;97899.47;;;0.35;100.00
30554;BME280;17335;50.720;7.452;2024-01-15T07:37:34;97905.72;;;0.34;100.00
30554;BME280;17335;50.720;7.452;2024-01-15T07:40:01;97902.72;;;0.39;100.00
30554;BME280;17335;50.720;7.452;2024-01-15T07:42:28;97908.72;;;0.41;100.00
30554;BME280;17335;50.720;7.452;2024-01-15T07:44:54;97904.75;;;0.35;100.00
30554;BME280;17335;50.720;7.452;2024-01-15T07:47:21;97911.00;;;0.34;100.00
30554;BME280;17335;50.720;7.452;2024-01-15T07:49:47;97906.16;;;0.28;100.00
30554;BME280;17335;50.720;7.452;2024-01-15T07:52:14;97897.91;;;0.44;100.00
30554;BME280;17335;50.720;7.452;2024-01-15T07:54:41;97902.44;;;0.31;100.00
30554;BME280;17335;50.720;7.452;2024-01-15T07:57:07;97905.34;;;0.39;100.00
30554;BME280;17335;50.720;7.452;2024-01-15T07:59:35;97897.66;;;0.25;100.00
30554;BME280;17335;50.720;7.452;2024-01-15T08:02:01;97893.19;;;0.25;100.00
30554;BME280;17335;50.720;7.452;2024-01-15T08:04:28;97894.19;;;0.35;100.00
30554;BME280;17335;50.720;7.452;2024-01-15T08:06:55;97890.38;;;0.40;100.00
30554;BME280;17335;50.720;7.452;2024-01-15T08:09:23;97902.09;;;0.35;100.00
30554;BME280;17335;50.720;7.452;2024-01-15T08:11:49;97891.09;;;0.42;100.00
30554;BME280;17335;50.720;7.452;2024-01-15T08:14:16;97889.41;;;0.41;100.00
30554;BME280;17335;50.720;7.452;2024-01-15T08:16:42;97892.88;;;0.41;100.00
30554;BME280;17335;50.720;7.452;2024-01-15T08:19:10;97894.72;;;0.52;100.00
30554;BME280;17335;50.720;7.452;2024-01-15T08:21:36;97891.31;;;0.50;100.00
30554;BME280;17335;50.720;7.452;2024-01-15T08:24:03;97896.59;;;0.50;100.00
30554;BME280;17335;50.720;7.452;2024-01-15T08:26:30;97891.22;;;0.40;100.00
30554;BME280;17335;50.720;7.452;2024-01-15T08:28:56;97895.28;;;0.44;100.00
30554;BME280;17335;50.720;7.452;2024-01-15T08:31:23;97892.25;;;0.37;100.00
30554;BME280;17335;50.720;7.452;2024-01-15T08:33:50;97884.84;;;0.43;100.00
30554;BME280;17335;50.720;7.452;2024-01-15T08:36:17;97887.84;;;0.38;100.00
30554;BME280;17335;50.720;7.452;2024-01-15T08:38:44;97891.44;;;0.37;100.00
30554;BME280;17335;50.720;7.452;2024-01-15T08:41:11;97888.19;;;0.33;100.00
30554;BME280;17335;50.720;7.452;2024-01-15T08:43:37;97891.66;;;0.34;100.00
30554;BME280;17335;50.720;7.452;2024-01-15T08:46:03;97901.38;;;0.33;100.00
30554;BME280;17335;50.720;7.452;2024-01-15T08:48:30;97899.34;;;0.37;100.00
30554;BME280;17335;50.720;7.452;2024-01-15T08:50:56;97897.19;;;0.42;100.00
30554;BME280;17335;50.720;7.452;2024-01-15T08:53:23;97900.44;;;0.46;100.00
30554;BME280;17335;50.720;7.452;2024-01-15T08:55:50;97887.97;;;0.48;100.00
30554;BME280;17335;50.720;7.452;2024-01-15T08:58:17;97895.66;;;0.51;100.00
30554;BME280;17335;50.720;7.452;2024-01-15T09:00:44;97887.97;;;0.48;100.00
30554;BME280;17335;50.720;7.452;2024-01-15T09:03:10;97886.91;;;0.50;100.00
30554;BME280;17335;50.720;7.452;2024-01-15T09:05:37;97890.03;;;0.55;100.00
30554;BME280;17335;50.720;7.452;2024-01-15T09:08:05;97897.34;;;0.52;100.00
30554;BME280;17335;50.720;7.452;2024-01-15T09:10:31;97897.56;;;0.49;100.00
30554;BME280;17335;50.720;7.452;2024-01-15T09:12:58;97894.72;;;0.52;100.00
30554;BME280;17335;50.720;7.452;2024-01-15T09:15:25;97898.28;;;0.51;100.00
30554;BME280;17335;50.720;7.452;2024-01-15T09:17:51;97894.94;;;0.49;100.00
30554;BME280;17335;50.720;7.452;2024-01-15T09:20:18;97893.00;;;0.51;100.00
30554;BME280;17335;50.720;7.452;2024-01-15T09:22:44;97901.53;;;0.43;100.00
30554;BME280;17335;50.720;7.452;2024-01-15T09:25:12;97897.69;;;0.47;100.00
30554;BME280;17335;50.720;7.452;2024-01-15T09:27:38;97894.09;;;0.48;100.00
30554;BME280;17335;50.720;7.452;2024-01-15T09:30:05;97903.81;;;0.48;100.00
30554;BME280;17335;50.720;7.452;2024-01-15T09:32:32;97894.44;;;0.44;100.00
30554;BME280;17335;50.720;7.452;2024-01-15T09:34:59;97886.31;;;0.47;100.00
30554;BME280;17335;50.720;7.452;2024-01-15T09:37:26;97887.34;;;0.44;100.00
30554;BME280;17335;50.720;7.452;2024-01-15T09:40:12;97887.97;;;0.48;100.00
30554;BME280;17335;50.720;7.452;2024-01-15T09:42:41;97878.59;;;0.55;100.00
30554;BME280;17335;50.720;7.452;2024-01-15T09:45:08;97881.50;;;0.63;100.00
30554;BME280;17335;50.720;7.452;2024-01-15T09:47:37;97878.75;;;0.65;100.00
30554;BME280;17335;50.720;7.452;2024-01-15T09:50:08;97881.50;;;0.63;100.00
30554;BME280;17335;50.720;7.452;2024-01-15T09:52:36;97876.59;;;0.70;100.00
30554;BME280;17335;50.720;7.452;2024-01-15T09:55:03;97872.16;;;0.70;100.00
30554;BME280;17335;50.720;7.452;2024-01-15T09:57:32;97869.50;;;0.70;100.00
30554;BME280;17335;50.720;7.452;2024-01-15T10:00:01;97860.38;;;0.63;100.00
30554;BME280;17335;50.720;7.452;2024-01-15T10:02:30;97877.31;;;0.61;100.00
30554;BME280;17335;50.720;7.452;2024-01-15T10:04:57;97869.03;;;0.54;100.00
30554;BME280;17335;50.720;7.452;2024-01-15T10:07:25;97862.91;;;0.65;100.00
30554;BME280;17335;50.720;7.452;2024-01-15T10:09:52;97866.16;;;0.57;100.00
30554;BME280;17335;50.720;7.452;2024-01-15T10:12:19;97870.69;;;0.55;100.00
30554;BME280;17335;50.720;7.452;2024-01-15T10:14:47;97876.34;;;0.50;100.00
30554;BME280;17335;50.720;7.452;2024-01-15T10:17:15;97869.75;;;0.56;100.00
30554;BME280;17335;50.720;7.452;2024-01-15T10:19:42;97876.94;;;0.54;100.00
30554;BME280;17335;50.720;7.452;2024-01-15T10:22:14;97881.41;;;0.53;100.00
30554;BME280;17335;50.720;7.452;2024-01-15T10:24:41;97881.13;;;0.56;100.00
30554;BME280;17335;50.720;7.452;2024-01-15T10:27:09;97886.19;;;0.60;100.00
30554;BME280;17335;50.720;7.452;2024-01-15T10:29:36;97885.22;;;0.49;100.00
30554;BME280;17335;50.720;7.452;2024-01-15T10:32:06;97885.44;;;0.46;100.00
30554;BME280;17335;50.720;7.452;2024-01-15T10:34:33;97885.81;;;0.53;100.00
30554;BME280;17335;50.720;7.452;2024-01-15T10:37:03;97893.25;;;0.48;100.00
30554;BME280;17335;50.720;7.452;2024-01-15T10:39:30;97906.22;;;0.40;100.00
30554;BME280;17335;50.720;7.452;2024-01-15T10:41:57;97901.06;;;0.49;100.00
30554;BME280;17335;50.720;7.452;2024-01-15T10:44:24;97902.97;;;0.47;100.00
30554;BME280;17335;50.720;7.452;2024-01-15T10:46:56;97893.00;;;0.40;100.00
30554;BME280;17335;50.720;7.452;2024-01-15T10:49:24;97885.81;;;0.42;100.00
30554;BME280;17335;50.720;7.452;2024-01-15T10:51:58;97898.03;;;0.43;100.00
30554;BME280;17335;50.720;7.452;2024-01-15T10:54:27;97897.25;;;0.53;100.00
30554;BME280;17335;50.720;7.452;2024-01-15T10:56:53;97902.16;;;0.47;100.00
30554;BME280;17335;50.720;7.452;2024-01-15T10:59:22;97889.44;;;0.52;100.00
30554;BME280;17335;50.720;7.452;2024-01-15T11:01:50;97888.84;;;0.71;100.00
30554;BME280;17335;50.720;7.452;2024-01-15T11:04:21;97885.63;;;0.67;100.00
30554;BME280;17335;50.720;7.452;2024-01-15T11:06:51;97898.69;;;0.69;100.00
30554;BME280;17335;50.720;7.452;2024-01-15T11:09:20;97894.00;;;0.61;100.00
30554;BME280;17335;50.720;7.452;2024-01-15T11:11:47;97889.91;;;0.68;100.00
30554;BME280;17335;50.720;7.452;2024-01-15T11:14:35;97882.59;;;0.61;100.00
30554;BME280;17335;50.720;7.452;2024-01-15T11:17:02;97873.69;;;0.62;100.00
30554;BME280;17335;50.720;7.452;2024-01-15T11:19:36;97883.66;;;0.58;100.00
30554;BME280;17335;50.720;7.452;2024-01-15T11:22:03;97898.19;;;0.52;100.00
30554;BME280;17335;50.720;7.452;2024-01-15T11:24:37;97897.34;;;0.52;100.00
30554;BME280;17335;50.720;7.452;2024-01-15T11:27:05;97903.72;;;0.61;100.00
30554;BME280;17335;50.720;7.452;2024-01-15T11:29:36;97903.00;;;0.70;100.00
30554;BME280;17335;50.720;7.452;2024-01-15T11:32:08;97898.69;;;0.80;100.00
30554;BME280;17335;50.720;7.452;2024-01-15T11:34:57;97898.94;;;0.77;100.00
30554;BME280;17335;50.720;7.452;2024-01-15T11:37:27;97900.59;;;0.67;100.00
30554;BME280;17335;50.720;7.452;2024-01-15T11:39:56;97907.69;;;0.66;100.00
30554;BME280;17335;50.720;7.452;2024-01-15T11:42:27;97908.41;;;0.57;100.00
30554;BME280;17335;50.720;7.452;2024-01-15T11:44:54;97905.00;;;0.55;100.00
30554;BME280;17335;50.720;7.452;2024-01-15T11:50:30;97916.28;;;0.46;100.00
30554;BME280;17335;50.720;7.452;2024-01-15T11:53:01;97921.13;;;0.52;100.00
30554;BME280;17335;50.720;7.452;2024-01-15T11:55:34;97923.31;;;0.69;100.00
30554;BME280;17335;50.720;7.452;2024-01-15T11:58:07;97930.03;;;0.73;100.00
30554;BME280;17335;50.720;7.452;2024-01-15T12:00:39;97918.41;;;0.76;100.00
30554;BME280;17335;50.720;7.452;2024-01-15T12:03:06;97914.44;;;0.82;100.00
30554;BME280;17335;50.720;7.452;2024-01-15T12:05:32;97923.66;;;0.87;100.00
30554;BME280;17335;50.720;7.452;2024-01-15T12:07:59;97927.66;;;0.93;100.00
30554;BME280;17335;50.720;7.452;2024-01-15T12:10:25;97927.19;;;0.88;100.00
30554;BME280;17335;50.720;7.452;2024-01-15T12:12:57;97917.78;;;0.84;100.00
30554;BME280;17335;50.720;7.452;2024-01-15T12:15:26;97920.66;;;0.81;100.00
30554;BME280;17335;50.720;7.452;2024-01-15T12:17:57;97923.94;;;0.84;100.00
30554;BME280;17335;50.720;7.452;2024-01-15T12:20:29;97908.88;;;0.62;100.00
30554;BME280;17335;50.720;7.452;2024-01-15T12:22:56;97921.38;;;0.71;100.00
30554;BME280;17335;50.720;7.452;2024-01-15T12:25:30;97918.16;;;0.79;100.00
30554;BME280;17335;50.720;7.452;2024-01-15T12:27:57;97916.94;;;0.83;100.00
30554;BME280;17335;50.720;7.452;2024-01-15T12:30:23;97914.16;;;0.73;100.00
30554;BME280;17335;50.720;7.452;2024-01-15T12:32:50;97913.00;;;0.78;100.00
30554;BME280;17335;50.720;7.452;2024-01-15T12:35:17;97918.28;;;0.78;100.00
30554;BME280;17335;50.720;7.452;2024-01-15T12:37:43;97909.97;;;0.71;100.00
30554;BME280;17335;50.720;7.452;2024-01-15T12:40:12;97918.75;;;0.71;100.00
30554;BME280;17335;50.720;7.452;2024-01-15T12:42:40;97919.22;;;0.77;100.00
30554;BME280;17335;50.720;7.452;2024-01-15T12:45:09;97916.09;;;0.71;100.00
30554;BME280;17335;50.720;7.452;2024-01-15T12:47:36;97914.69;;;0.90;100.00
30554;BME280;17335;50.720;7.452;2024-01-15T12:50:07;97906.38;;;0.94;100.00
30554;BME280;17335;50.720;7.452;2024-01-15T12:52:44;97918.88;;;1.15;100.00
30554;BME280;17335;50.720;7.452;2024-01-15T12:55:11;97917.34;;;1.24;100.00
30554;BME280;17335;50.720;7.452;2024-01-15T12:57:38;97918.63;;;1.41;100.00
30554;BME280;17335;50.720;7.452;2024-01-15T13:00:06;97925.75;;;1.29;100.00
30554;BME280;17335;50.720;7.452;2024-01-15T13:02:40;97927.63;;;1.27;100.00
30554;BME280;17335;50.720;7.452;2024-01-15T13:05:11;97915.75;;;1.21;100.00